sensor_id;sensor_type;location;lat;lon;timestamp;P1;durP1;ratioP1;P2;durP2;ratioP2
57295;SDS011;43146;50.976;18.216;2024-03-06T00:01:47;188.80;;;69.40;;
57295;SDS011;43146;50.976;18.216;2024-03-06T00:04:13;181.90;;;69.00;;
57295;SDS011;43146;50.976;18.216;2024-03-06T00:06:38;165.80;;;71.90;;
57295;SDS011;43146;50.976;18.216;2024-03-06T00:09:04;170.60;;;69.50;;
57295;SDS011;43146;50.976;18.216;2024-03-06T00:11:30;186.70;;;70.20;;
57295;SDS011;43146;50.976;18.216;2024-03-06T00:13:55;236.10;;;69.50;;
57295;SDS011;43146;50.976;18.216;2024-03-06T00:16:21;819.00;;;90.00;;
57295;SDS011;43146;50.976;18.216;2024-03-06T00:18:46;692.70;;;80.90;;
57295;SDS011;43146;50.976;18.216;2024-03-06T00:21:12;144.80;;;64.50;;
57295;SDS011;43146;50.976;18.216;2024-03-06T00:23:38;159.80;;;60.10;;
57295;SDS011;43146;50.976;18.216;2024-03-06T00:26:03;134.50;;;56.00;;
57295;SDS011;43146;50.976;18.216;2024-03-06T00:28:29;114.40;;;51.00;;
57295;SDS011;43146;50.976;18.216;2024-03-06T00:30:55;118.80;;;51.60;;
57295;SDS011;43146;50.976;18.216;2024-03-06T00:33:20;131.00;;;54.40;;
57295;SDS011;43146;50.976;18.216;2024-03-06T00:35:46;114.20;;;50.70;;
57295;SDS011;43146;50.976;18.216;2024-03-06T00:38:12;121.50;;;51.20;;
57295;SDS011;43146;50.976;18.216;2024-03-06T00:40:38;120.40;;;54.10;;
57295;SDS011;43146;50.976;18.216;2024-03-06T00:43:04;145.20;;;58.00;;
57295;SDS011;43146;50.976;18.216;2024-03-06T00:45:30;132.60;;;58.20;;
57295;SDS011;43146;50.976;18.216;2024-03-06T00:47:56;138.00;;;57.30;;
57295;SDS011;43146;50.976;18.216;2024-03-06T00:50:21;144.70;;;60.30;;
57295;SDS011;43146;50.976;18.216;2024-03-06T00:52:47;178.50;;;68.70;;
57295;SDS011;43146;50.976;18.216;2024-03-06T00:55:13;187.30;;;72.50;;
57295;SDS011;43146;50.976;18.216;2024-03-06T00:57:39;174.00;;;68.20;;
57295;SDS011;43146;50.976;18.216;2024-03-06T01:00:05;161.30;;;65.10;;
57295;SDS011;43146;50.976;18.216;2024-03-06T01:02:38;143.50;;;58.10;;
57295;SDS011;43146;50.976;18.216;2024-03-06T01:05:04;178.70;;;68.90;;
57295;SDS011;43146;50.976;18.216;2024-03-06T01:07:30;153.40;;;63.50;;
57295;SDS011;43146;50.976;18.216;2024-03-06T01:09:56;169.40;;;70.40;;
57295;SDS011;43146;50.976;18.216;2024-03-06T01:12:26;172.30;;;69.20;;
57295;SDS011;43146;50.976;18.216;2024-03-06T01:14:52;170.90;;;71.20;;
57295;SDS011;43146;50.976;18.216;2024-03-06T01:17:17;167.90;;;67.40;;
57295;SDS011;43146;50.976;18.216;2024-03-06T01:19:43;161.80;;;66.20;;
57295;SDS011;43146;50.976;18.216;2024-03-06T01:22:09;157.60;;;66.60;;
57295;SDS011;43146;50.976;18.216;2024-03-06T01:24:35;165.20;;;68.10;;
57295;SDS011;43146;50.976;18.216;2024-03-06T01:27:01;170.00;;;70.90;;
57295;SDS011;43146;50.976;18.216;2024-03-06T01:29:30;177.50;;;69.20;;
57295;SDS011;43146;50.976;18.216;2024-03-06T01:31:56;158.50;;;65.10;;
57295;SDS011;43146;50.976;18.216;2024-03-06T01:34:22;125.00;;;53.40;;
57295;SDS011;43146;50.976;18.216;2024-03-06T01:36:48;109.70;;;49.20;;
57295;SDS011;43146;50.976;18.216;2024-03-06T01:39:13;118.70;;;51.40;;
57295;SDS011;43146;50.976;18.216;2024-03-06T01:41:45;113.60;;;52.00;;
57295;SDS011;43146;50.976;18.216;2024-03-06T01:44:12;116.50;;;50.80;;
57295;SDS011;43146;50.976;18.216;2024-03-06T01:46:38;120.30;;;51.30;;
57295;SDS011;43146;50.976;18.216;2024-03-06T01:49:04;119.40;;;53.60;;
57295;SDS011;43146;50.976;18.216;2024-03-06T01:51:30;120.90;;;55.90;;
57295;SDS011;43146;50.976;18.216;2024-03-06T01:53:57;102.10;;;45.00;;
57295;SDS011;43146;50.976;18.216;2024-03-06T01:56:23;104.10;;;45.60;;
57295;SDS011;43146;50.976;18.216;2024-03-06T01:58:50;98.50;;;45.10;;
57295;SDS011;43146;50.976;18.216;2024-03-06T02:01:16;98.10;;;44.00;;
57295;SDS011;43146;50.976;18.216;2024-03-06T02:03:43;96.90;;;43.10;;
57295;SDS011;43146;50.976;18.216;2024-03-06T02:06:09;99.30;;;43.60;;
57295;SDS011;43146;50.976;18.216;2024-03-06T02:08:36;105.30;;;44.70;;
57295;SDS011;43146;50.976;18.216;2024-03-06T02:11:02;93.00;;;41.80;;
57295;SDS011;43146;50.976;18.216;2024-03-06T02:13:27;94.00;;;41.30;;
57295;SDS011;43146;50.976;18.216;2024-03-06T02:15:53;88.70;;;38.50;;
57295;SDS011;43146;50.976;18.216;2024-03-06T02:18:19;87.50;;;37.20;;
57295;SDS011;43146;50.976;18.216;2024-03-06T02:20:44;87.90;;;37.70;;
57295;SDS011;43146;50.976;18.216;2024-03-06T02:23:11;91.00;;;39.40;;
57295;SDS011;43146;50.976;18.216;2024-03-06T02:25:36;84.20;;;35.60;;
57295;SDS011;43146;50.976;18.216;2024-03-06T02:28:03;84.60;;;38.20;;
57295;SDS011;43146;50.976;18.216;2024-03-06T02:30:29;83.30;;;38.70;;
57295;SDS011;43146;50.976;18.216;2024-03-06T02:33:01;85.40;;;37.10;;
57295;SDS011;43146;50.976;18.216;2024-03-06T02:35:31;106.50;;;48.00;;
57295;SDS011;43146;50.976;18.216;2024-03-06T02:38:01;103.90;;;43.20;;
57295;SDS011;43146;50.976;18.216;2024-03-06T02:40:30;99.80;;;44.60;;
57295;SDS011;43146;50.976;18.216;2024-03-06T02:42:56;97.90;;;42.40;;
57295;SDS011;43146;50.976;18.216;2024-03-06T02:45:22;102.00;;;44.60;;
57295;SDS011;43146;50.976;18.216;2024-03-06T02:47:47;102.00;;;43.60;;
57295;SDS011;43146;50.976;18.216;2024-03-06T02:50:13;106.60;;;45.20;;
57295;SDS011;43146;50.976;18.216;2024-03-06T02:52:39;102.70;;;41.10;;
57295;SDS011;43146;50.976;18.216;2024-03-06T02:55:05;93.40;;;41.80;;
57295;SDS011;43146;50.976;18.216;2024-03-06T02:57:31;98.20;;;40.40;;
57295;SDS011;43146;50.976;18.216;2024-03-06T02:59:57;94.10;;;41.70;;
57295;SDS011;43146;50.976;18.216;2024-03-06T03:02:23;94.40;;;40.70;;
57295;SDS011;43146;50.976;18.216;2024-03-06T03:04:49;91.00;;;40.30;;
57295;SDS011;43146;50.976;18.216;2024-03-06T03:07:15;96.30;;;40.20;;
57295;SDS011;43146;50.976;18.216;2024-03-06T03:09:41;108.80;;;43.80;;
57295;SDS011;43146;50.976;18.216;2024-03-06T03:12:06;101.90;;;41.60;;
57295;SDS011;43146;50.976;18.216;2024-03-06T03:14:32;114.60;;;43.50;;
57295;SDS011;43146;50.976;18.216;2024-03-06T03:16:59;100.50;;;42.00;;
57295;SDS011;43146;50.976;18.216;2024-03-06T03:19:25;102.00;;;42.40;;
57295;SDS011;43146;50.976;18.216;2024-03-06T03:21:51;104.50;;;42.30;;
57295;SDS011;43146;50.976;18.216;2024-03-06T03:24:17;102.20;;;42.40;;
57295;SDS011;43146;50.976;18.216;2024-03-06T03:26:45;101.80;;;43.00;;
57295;SDS011;43146;50.976;18.216;2024-03-06T03:29:11;88.10;;;37.50;;
57295;SDS011;43146;50.976;18.216;2024-03-06T03:31:36;83.10;;;34.70;;
57295;SDS011;43146;50.976;18.216;2024-03-06T03:34:04;88.10;;;36.30;;
57295;SDS011;43146;50.976;18.216;2024-03-06T03:36:30;81.80;;;35.50;;
57295;SDS011;43146;50.976;18.216;2024-03-06T03:38:56;83.80;;;34.40;;
57295;SDS011;43146;50.976;18.216;2024-03-06T03:41:22;86.20;;;34.60;;
57295;SDS011;43146;50.976;18.216;2024-03-06T03:43:48;80.90;;;35.10;;
57295;SDS011;43146;50.976;18.216;2024-03-06T03:46:14;73.30;;;32.20;;
57295;SDS011;43146;50.976;18.216;2024-03-06T03:48:40;77.40;;;32.50;;
57295;SDS011;43146;50.976;18.216;2024-03-06T03:51:05;99.90;;;37.70;;
57295;SDS011;43146;50.976;18.216;2024-03-06T03:53:35;80.20;;;33.00;;
57295;SDS011;43146;50.976;18.216;2024-03-06T03:56:01;83.10;;;34.30;;
57295;SDS011;43146;50.976;18.216;2024-03-06T03:58:28;72.90;;;32.10;;
57295;SDS011;43146;50.976;18.216;2024-03-06T04:00:54;75.70;;;33.80;;
57295;SDS011;43146;50.976;18.216;2024-03-06T04:03:20;79.40;;;33.00;;
57295;SDS011;43146;50.976;18.216;2024-03-06T04:05:47;80.10;;;36.00;;
57295;SDS011;43146;50.976;18.216;2024-03-06T04:08:13;78.50;;;35.90;;
57295;SDS011;43146;50.976;18.216;2024-03-06T04:10:39;78.90;;;32.70;;
57295;SDS011;43146;50.976;18.216;2024-03-06T04:13:05;79.70;;;33.10;;
57295;SDS011;43146;50.976;18.216;2024-03-06T04:15:31;92.80;;;37.90;;
57295;SDS011;43146;50.976;18.216;2024-03-06T04:17:57;93.40;;;38.00;;
57295;SDS011;43146;50.976;18.216;2024-03-06T04:20:23;92.70;;;38.80;;
57295;SDS011;43146;50.976;18.216;2024-03-06T04:22:48;90.60;;;37.00;;
57295;SDS011;43146;50.976;18.216;2024-03-06T04:25:16;80.70;;;34.10;;
57295;SDS011;43146;50.976;18.216;2024-03-06T04:27:43;75.30;;;34.30;;
57295;SDS011;43146;50.976;18.216;2024-03-06T04:30:09;73.00;;;32.10;;
57295;SDS011;43146;50.976;18.216;2024-03-06T04:32:35;74.80;;;32.90;;
57295;SDS011;43146;50.976;18.216;2024-03-06T04:35:00;91.30;;;38.10;;
57295;SDS011;43146;50.976;18.216;2024-03-06T04:37:26;89.00;;;37.30;;
57295;SDS011;43146;50.976;18.216;2024-03-06T04:39:56;78.70;;;36.30;;
57295;SDS011;43146;50.976;18.216;2024-03-06T04:42:21;83.10;;;33.70;;
57295;SDS011;43146;50.976;18.216;2024-03-06T04:44:47;79.00;;;34.50;;
57295;SDS011;43146;50.976;18.216;2024-03-06T04:47:13;78.80;;;33.80;;
57295;SDS011;43146;50.976;18.216;2024-03-06T04:49:38;79.70;;;33.40;;
57295;SDS011;43146;50.976;18.216;2024-03-06T04:52:04;77.90;;;34.60;;
57295;SDS011;43146;50.976;18.216;2024-03-06T04:54:30;88.00;;;36.20;;
57295;SDS011;43146;50.976;18.216;2024-03-06T04:56:55;85.40;;;34.70;;
57295;SDS011;43146;50.976;18.216;2024-03-06T04:59:21;88.00;;;37.30;;
57295;SDS011;43146;50.976;18.216;2024-03-06T05:01:47;85.30;;;36.70;;
57295;SDS011;43146;50.976;18.216;2024-03-06T05:04:13;81.20;;;36.00;;
57295;SDS011;43146;50.976;18.216;2024-03-06T05:06:38;81.40;;;34.60;;
57295;SDS011;43146;50.976;18.216;2024-03-06T05:09:04;103.50;;;40.00;;
57295;SDS011;43146;50.976;18.216;2024-03-06T05:11:31;89.80;;;38.10;;
57295;SDS011;43146;50.976;18.216;2024-03-06T05:14:00;111.90;;;40.60;;
57295;SDS011;43146;50.976;18.216;2024-03-06T05:16:26;120.60;;;38.00;;
57295;SDS011;43146;50.976;18.216;2024-03-06T05:18:52;111.10;;;36.70;;
57295;SDS011;43146;50.976;18.216;2024-03-06T05:21:18;94.80;;;35.90;;
57295;SDS011;43146;50.976;18.216;2024-03-06T05:23:45;137.00;;;41.20;;
57295;SDS011;43146;50.976;18.216;2024-03-06T05:26:10;168.60;;;43.50;;
57295;SDS011;43146;50.976;18.216;2024-03-06T05:28:36;99.20;;;34.20;;
57295;SDS011;43146;50.976;18.216;2024-03-06T05:31:13;114.10;;;34.30;;
57295;SDS011;43146;50.976;18.216;2024-03-06T05:33:41;143.80;;;35.90;;
57295;SDS011;43146;50.976;18.216;2024-03-06T05:36:07;125.50;;;34.50;;
57295;SDS011;43146;50.976;18.216;2024-03-06T05:38:32;116.70;;;33.80;;
57295;SDS011;43146;50.976;18.216;2024-03-06T05:40:58;119.10;;;35.60;;
57295;SDS011;43146;50.976;18.216;2024-03-06T05:43:23;109.10;;;31.90;;
57295;SDS011;43146;50.976;18.216;2024-03-06T05:45:49;99.50;;;29.00;;
57295;SDS011;43146;50.976;18.216;2024-03-06T05:48:14;101.10;;;28.80;;
57295;SDS011;43146;50.976;18.216;2024-03-06T05:50:40;113.10;;;29.90;;
57295;SDS011;43146;50.976;18.216;2024-03-06T05:53:06;100.30;;;32.30;;
57295;SDS011;43146;50.976;18.216;2024-03-06T05:55:32;124.50;;;31.90;;
57295;SDS011;43146;50.976;18.216;2024-03-06T05:57:57;93.00;;;30.00;;
57295;SDS011;43146;50.976;18.216;2024-03-06T06:00:24;52.40;;;24.40;;
57295;SDS011;43146;50.976;18.216;2024-03-06T06:02:50;94.60;;;26.90;;
57295;SDS011;43146;50.976;18.216;2024-03-06T06:05:15;101.30;;;27.70;;
57295;SDS011;43146;50.976;18.216;2024-03-06T06:07:45;73.30;;;26.90;;
57295;SDS011;43146;50.976;18.216;2024-03-06T06:10:11;74.00;;;31.10;;
57295;SDS011;43146;50.976;18.216;2024-03-06T06:12:37;99.80;;;31.90;;
57295;SDS011;43146;50.976;18.216;2024-03-06T06:15:02;98.20;;;38.90;;
57295;SDS011;43146;50.976;18.216;2024-03-06T06:17:28;94.50;;;28.40;;
57295;SDS011;43146;50.976;18.216;2024-03-06T06:19:54;127.60;;;38.90;;
57295;SDS011;43146;50.976;18.216;2024-03-06T06:22:19;88.30;;;28.30;;
57295;SDS011;43146;50.976;18.216;2024-03-06T06:24:45;88.50;;;28.60;;
57295;SDS011;43146;50.976;18.216;2024-03-06T06:27:11;133.40;;;45.70;;
57295;SDS011;43146;50.976;18.216;2024-03-06T06:29:37;79.60;;;27.20;;
57295;SDS011;43146;50.976;18.216;2024-03-06T06:32:02;130.60;;;32.50;;
57295;SDS011;43146;50.976;18.216;2024-03-06T06:34:28;97.20;;;31.90;;
57295;SDS011;43146;50.976;18.216;2024-03-06T06:36:53;228.40;;;40.30;;
57295;SDS011;43146;50.976;18.216;2024-03-06T06:39:19;168.20;;;38.50;;
57295;SDS011;43146;50.976;18.216;2024-03-06T06:41:44;121.10;;;28.60;;
57295;SDS011;43146;50.976;18.216;2024-03-06T06:44:10;144.10;;;30.50;;
57295;SDS011;43146;50.976;18.216;2024-03-06T06:46:38;166.40;;;33.50;;
57295;SDS011;43146;50.976;18.216;2024-03-06T06:49:04;83.60;;;29.20;;
57295;SDS011;43146;50.976;18.216;2024-03-06T06:51:31;97.40;;;33.20;;
57295;SDS011;43146;50.976;18.216;2024-03-06T06:53:56;62.20;;;27.90;;
57295;SDS011;43146;50.976;18.216;2024-03-06T06:56:22;106.40;;;37.50;;
57295;SDS011;43146;50.976;18.216;2024-03-06T06:58:49;104.30;;;40.90;;
57295;SDS011;43146;50.976;18.216;2024-03-06T07:01:15;131.50;;;39.90;;
57295;SDS011;43146;50.976;18.216;2024-03-06T07:03:42;116.70;;;36.30;;
57295;SDS011;43146;50.976;18.216;2024-03-06T07:06:08;169.60;;;37.40;;
57295;SDS011;43146;50.976;18.216;2024-03-06T07:08:36;117.90;;;37.70;;
57295;SDS011;43146;50.976;18.216;2024-03-06T07:11:02;154.30;;;38.30;;
57295;SDS011;43146;50.976;18.216;2024-03-06T07:13:28;185.20;;;41.90;;
57295;SDS011;43146;50.976;18.216;2024-03-06T07:15:54;247.90;;;45.50;;
57295;SDS011;43146;50.976;18.216;2024-03-06T07:18:19;208.10;;;45.30;;
57295;SDS011;43146;50.976;18.216;2024-03-06T07:20:45;301.90;;;46.10;;
57295;SDS011;43146;50.976;18.216;2024-03-06T07:23:12;284.10;;;46.40;;
57295;SDS011;43146;50.976;18.216;2024-03-06T07:25:38;185.50;;;45.10;;
57295;SDS011;43146;50.976;18.216;2024-03-06T07:28:03;373.60;;;51.20;;
57295;SDS011;43146;50.976;18.216;2024-03-06T07:30:30;232.10;;;45.70;;
57295;SDS011;43146;50.976;18.216;2024-03-06T07:32:56;274.70;;;47.40;;
57295;SDS011;43146;50.976;18.216;2024-03-06T07:35:22;214.30;;;44.40;;
57295;SDS011;43146;50.976;18.216;2024-03-06T07:37:48;346.80;;;51.80;;
57295;SDS011;43146;50.976;18.216;2024-03-06T07:40:14;223.20;;;45.20;;
57295;SDS011;43146;50.976;18.216;2024-03-06T07:42:40;245.70;;;45.80;;
57295;SDS011;43146;50.976;18.216;2024-03-06T07:45:06;282.50;;;71.40;;
57295;SDS011;43146;50.976;18.216;2024-03-06T07:47:34;184.30;;;56.20;;
57295;SDS011;43146;50.976;18.216;2024-03-06T07:50:00;191.90;;;43.40;;
57295;SDS011;43146;50.976;18.216;2024-03-06T07:52:26;112.70;;;41.00;;
57295;SDS011;43146;50.976;18.216;2024-03-06T07:54:51;107.20;;;44.50;;
57295;SDS011;43146;50.976;18.216;2024-03-06T07:57:17;112.00;;;42.50;;
57295;SDS011;43146;50.976;18.216;2024-03-06T07:59:43;124.70;;;43.60;;
57295;SDS011;43146;50.976;18.216;2024-03-06T08:02:09;99.40;;;45.00;;
57295;SDS011;43146;50.976;18.216;2024-03-06T08:04:34;115.50;;;44.10;;
57295;SDS011;43146;50.976;18.216;2024-03-06T08:07:00;110.80;;;44.20;;
57295;SDS011;43146;50.976;18.216;2024-03-06T08:09:26;116.80;;;46.40;;
57295;SDS011;43146;50.976;18.216;2024-03-06T08:11:54;114.50;;;46.40;;
57295;SDS011;43146;50.976;18.216;2024-03-06T08:14:20;126.00;;;48.90;;
57295;SDS011;43146;50.976;18.216;2024-03-06T08:16:45;119.30;;;50.30;;
57295;SDS011;43146;50.976;18.216;2024-03-06T08:19:11;126.30;;;50.30;;
57295;SDS011;43146;50.976;18.216;2024-03-06T08:21:37;117.20;;;44.80;;
57295;SDS011;43146;50.976;18.216;2024-03-06T08:24:03;125.90;;;47.20;;
57295;SDS011;43146;50.976;18.216;2024-03-06T08:26:29;115.30;;;47.40;;
57295;SDS011;43146;50.976;18.216;2024-03-06T08:28:54;113.90;;;48.20;;
57295;SDS011;43146;50.976;18.216;2024-03-06T08:31:20;146.60;;;54.20;;
57295;SDS011;43146;50.976;18.216;2024-03-06T08:33:47;137.20;;;51.10;;
57295;SDS011;43146;50.976;18.216;2024-03-06T08:36:16;138.70;;;56.20;;
57295;SDS011;43146;50.976;18.216;2024-03-06T08:38:41;118.10;;;51.60;;
57295;SDS011;43146;50.976;18.216;2024-03-06T08:41:07;116.80;;;46.50;;
57295;SDS011;43146;50.976;18.216;2024-03-06T08:43:32;122.30;;;48.80;;
57295;SDS011;43146;50.976;18.216;2024-03-06T08:45:58;120.60;;;47.50;;
57295;SDS011;43146;50.976;18.216;2024-03-06T08:48:24;109.90;;;45.80;;
57295;SDS011;43146;50.976;18.216;2024-03-06T08:50:49;101.10;;;44.20;;
57295;SDS011;43146;50.976;18.216;2024-03-06T08:53:16;107.50;;;45.70;;
57295;SDS011;43146;50.976;18.216;2024-03-06T08:55:45;94.60;;;43.70;;
57295;SDS011;43146;50.976;18.216;2024-03-06T08:58:11;96.40;;;43.80;;
57295;SDS011;43146;50.976;18.216;2024-03-06T09:00:36;92.90;;;43.60;;
57295;SDS011;43146;50.976;18.216;2024-03-06T09:03:02;102.20;;;46.50;;
57295;SDS011;43146;50.976;18.216;2024-03-06T09:05:28;95.00;;;45.20;;
57295;SDS011;43146;50.976;18.216;2024-03-06T09:07:54;98.70;;;45.80;;
57295;SDS011;43146;50.976;18.216;2024-03-06T09:10:19;98.80;;;45.60;;
57295;SDS011;43146;50.976;18.216;2024-03-06T09:12:46;107.30;;;49.10;;
57295;SDS011;43146;50.976;18.216;2024-03-06T09:15:12;126.90;;;60.40;;
57295;SDS011;43146;50.976;18.216;2024-03-06T09:17:39;178.20;;;87.30;;
57295;SDS011;43146;50.976;18.216;2024-03-06T09:20:05;263.60;;;133.40;;
57295;SDS011;43146;50.976;18.216;2024-03-06T09:22:38;159.50;;;76.90;;
57295;SDS011;43146;50.976;18.216;2024-03-06T09:25:07;103.80;;;49.60;;
57295;SDS011;43146;50.976;18.216;2024-03-06T09:27:33;155.00;;;78.20;;
57295;SDS011;43146;50.976;18.216;2024-03-06T09:29:59;152.10;;;83.30;;
57295;SDS011;43146;50.976;18.216;2024-03-06T09:32:25;105.20;;;54.70;;
57295;SDS011;43146;50.976;18.216;2024-03-06T09:34:51;167.50;;;86.50;;
57295;SDS011;43146;50.976;18.216;2024-03-06T09:37:18;103.00;;;54.60;;
57295;SDS011;43146;50.976;18.216;2024-03-06T09:39:44;150.70;;;78.80;;
57295;SDS011;43146;50.976;18.216;2024-03-06T09:42:13;99.00;;;51.10;;
57295;SDS011;43146;50.976;18.216;2024-03-06T09:44:39;89.30;;;47.30;;
57295;SDS011;43146;50.976;18.216;2024-03-06T09:47:04;85.00;;;44.40;;
57295;SDS011;43146;50.976;18.216;2024-03-06T09:49:31;78.70;;;42.00;;
57295;SDS011;43146;50.976;18.216;2024-03-06T09:51:58;80.40;;;42.60;;
57295;SDS011;43146;50.976;18.216;2024-03-06T09:54:25;78.20;;;41.60;;
57295;SDS011;43146;50.976;18.216;2024-03-06T09:56:52;81.00;;;43.10;;
57295;SDS011;43146;50.976;18.216;2024-03-06T09:59:18;80.30;;;41.60;;
57295;SDS011;43146;50.976;18.216;2024-03-06T10:01:56;74.60;;;40.40;;
57295;SDS011;43146;50.976;18.216;2024-03-06T10:04:23;75.60;;;40.30;;
57295;SDS011;43146;50.976;18.216;2024-03-06T10:06:53;109.40;;;65.70;;
57295;SDS011;43146;50.976;18.216;2024-03-06T10:09:22;72.30;;;39.50;;
57295;SDS011;43146;50.976;18.216;2024-03-06T10:11:48;87.90;;;51.80;;
57295;SDS011;43146;50.976;18.216;2024-03-06T10:14:15;70.70;;;39.10;;
57295;SDS011;43146;50.976;18.216;2024-03-06T10:16:54;65.60;;;36.50;;
57295;SDS011;43146;50.976;18.216;2024-03-06T10:19:21;67.90;;;37.00;;
57295;SDS011;43146;50.976;18.216;2024-03-06T10:21:48;64.60;;;34.80;;
57295;SDS011;43146;50.976;18.216;2024-03-06T10:24:24;58.20;;;33.00;;
57295;SDS011;43146;50.976;18.216;2024-03-06T10:26:57;61.20;;;32.70;;
57295;SDS011;43146;50.976;18.216;2024-03-06T10:29:24;57.30;;;31.70;;
57295;SDS011;43146;50.976;18.216;2024-03-06T10:31:51;68.10;;;34.60;;
57295;SDS011;43146;50.976;18.216;2024-03-06T10:34:22;65.70;;;36.60;;
57295;SDS011;43146;50.976;18.216;2024-03-06T10:36:59;65.70;;;35.90;;
57295;SDS011;43146;50.976;18.216;2024-03-06T10:39:26;65.00;;;34.60;;
57295;SDS011;43146;50.976;18.216;2024-03-06T10:41:53;65.80;;;36.70;;
57295;SDS011;43146;50.976;18.216;2024-03-06T10:44:25;64.90;;;35.60;;
57295;SDS011;43146;50.976;18.216;2024-03-06T10:47:01;64.20;;;34.90;;
57295;SDS011;43146;50.976;18.216;2024-03-06T10:49:28;66.20;;;34.00;;
57295;SDS011;43146;50.976;18.216;2024-03-06T10:52:01;63.30;;;34.70;;
57295;SDS011;43146;50.976;18.216;2024-03-06T10:54:29;61.00;;;34.80;;
57295;SDS011;43146;50.976;18.216;2024-03-06T10:56:55;68.30;;;36.20;;
57295;SDS011;43146;50.976;18.216;2024-03-06T10:59:21;68.30;;;35.50;;
57295;SDS011;43146;50.976;18.216;2024-03-06T11:01:53;65.50;;;33.60;;
57295;SDS011;43146;50.976;18.216;2024-03-06T11:04:20;63.40;;;34.20;;
57295;SDS011;43146;50.976;18.216;2024-03-06T11:06:46;64.40;;;32.40;;
57295;SDS011;43146;50.976;18.216;2024-03-06T11:09:13;61.60;;;32.80;;
57295;SDS011;43146;50.976;18.216;2024-03-06T11:11:50;63.30;;;33.10;;
57295;SDS011;43146;50.976;18.216;2024-03-06T11:14:17;62.70;;;31.30;;
57295;SDS011;43146;50.976;18.216;2024-03-06T11:19:22;61.30;;;32.80;;
57295;SDS011;43146;50.976;18.216;2024-03-06T11:21:48;62.70;;;32.70;;
57295;SDS011;43146;50.976;18.216;2024-03-06T11:24:22;62.40;;;33.20;;
57295;SDS011;43146;50.976;18.216;2024-03-06T11:27:03;70.00;;;35.60;;
57295;SDS011;43146;50.976;18.216;2024-03-06T11:32:57;64.30;;;33.00;;
57295;SDS011;43146;50.976;18.216;2024-03-06T11:35:24;65.00;;;33.80;;
57295;SDS011;43146;50.976;18.216;2024-03-06T11:37:50;64.10;;;35.00;;
57295;SDS011;43146;50.976;18.216;2024-03-06T11:40:26;62.30;;;33.30;;
57295;SDS011;43146;50.976;18.216;2024-03-06T11:42:52;60.30;;;31.90;;
57295;SDS011;43146;50.976;18.216;2024-03-06T11:45:19;67.00;;;33.30;;
57295;SDS011;43146;50.976;18.216;2024-03-06T11:47:56;63.50;;;33.30;;
57295;SDS011;43146;50.976;18.216;2024-03-06T11:50:23;57.90;;;30.30;;
57295;SDS011;43146;50.976;18.216;2024-03-06T11:52:51;54.00;;;28.90;;
57295;SDS011;43146;50.976;18.216;2024-03-06T11:55:17;54.40;;;29.40;;
57295;SDS011;43146;50.976;18.216;2024-03-06T11:57:42;50.90;;;27.20;;
57295;SDS011;43146;50.976;18.216;2024-03-06T12:00:08;48.50;;;26.30;;
57295;SDS011;43146;50.976;18.216;2024-03-06T12:02:36;50.40;;;26.50;;
57295;SDS011;43146;50.976;18.216;2024-03-06T12:05:02;58.10;;;28.80;;
57295;SDS011;43146;50.976;18.216;2024-03-06T12:07:30;51.10;;;26.60;;
57295;SDS011;43146;50.976;18.216;2024-03-06T12:09:57;52.00;;;27.00;;
57295;SDS011;43146;50.976;18.216;2024-03-06T12:12:23;52.80;;;27.20;;
57295;SDS011;43146;50.976;18.216;2024-03-06T12:14:59;49.00;;;25.70;;
57295;SDS011;43146;50.976;18.216;2024-03-06T12:17:25;49.50;;;25.50;;
57295;SDS011;43146;50.976;18.216;2024-03-06T12:19:51;52.10;;;25.20;;
57295;SDS011;43146;50.976;18.216;2024-03-06T12:22:24;50.90;;;25.30;;
57295;SDS011;43146;50.976;18.216;2024-03-06T12:24:58;52.00;;;26.20;;
57295;SDS011;43146;50.976;18.216;2024-03-06T12:27:25;53.00;;;27.90;;
57295;SDS011;43146;50.976;18.216;2024-03-06T12:29:52;54.60;;;27.10;;
57295;SDS011;43146;50.976;18.216;2024-03-06T12:32:19;53.50;;;26.30;;
57295;SDS011;43146;50.976;18.216;2024-03-06T12:34:55;54.40;;;27.30;;
57295;SDS011;43146;50.976;18.216;2024-03-06T12:37:21;57.60;;;29.30;;
57295;SDS011;43146;50.976;18.216;2024-03-06T12:39:57;58.70;;;28.80;;
57295;SDS011;43146;50.976;18.216;2024-03-06T12:42:22;65.90;;;32.00;;
57295;SDS011;43146;50.976;18.216;2024-03-06T12:44:49;65.00;;;31.90;;
57295;SDS011;43146;50.976;18.216;2024-03-06T12:47:15;67.80;;;32.20;;
57295;SDS011;43146;50.976;18.216;2024-03-06T12:49:41;62.80;;;32.40;;
57295;SDS011;43146;50.976;18.216;2024-03-06T12:52:06;68.90;;;33.90;;
57295;SDS011;43146;50.976;18.216;2024-03-06T12:54:33;64.40;;;30.10;;
57295;SDS011;43146;50.976;18.216;2024-03-06T12:56:59;64.70;;;30.30;;
57295;SDS011;43146;50.976;18.216;2024-03-06T12:59:24;64.10;;;32.30;;
57295;SDS011;43146;50.976;18.216;2024-03-06T13:01:50;64.00;;;34.30;;
57295;SDS011;43146;50.976;18.216;2024-03-06T13:04:16;60.60;;;31.00;;
57295;SDS011;43146;50.976;18.216;2024-03-06T13:06:41;67.70;;;33.50;;
57295;SDS011;43146;50.976;18.216;2024-03-06T13:09:07;68.90;;;33.60;;
57295;SDS011;43146;50.976;18.216;2024-03-06T13:11:32;67.00;;;34.00;;
57295;SDS011;43146;50.976;18.216;2024-03-06T13:13:58;71.50;;;35.20;;
57295;SDS011;43146;50.976;18.216;2024-03-06T13:16:26;67.60;;;34.00;;
57295;SDS011;43146;50.976;18.216;2024-03-06T13:18:54;79.20;;;38.20;;
57295;SDS011;43146;50.976;18.216;2024-03-06T13:21:22;68.40;;;34.70;;
57295;SDS011;43146;50.976;18.216;2024-03-06T13:23:48;70.60;;;34.40;;
57295;SDS011;43146;50.976;18.216;2024-03-06T13:26:14;73.80;;;34.80;;
57295;SDS011;43146;50.976;18.216;2024-03-06T13:28:41;69.20;;;34.90;;
57295;SDS011;43146;50.976;18.216;2024-03-06T13:31:06;71.30;;;35.40;;
57295;SDS011;43146;50.976;18.216;2024-03-06T13:33:32;65.80;;;32.60;;
57295;SDS011;43146;50.976;18.216;2024-03-06T13:35:58;71.00;;;34.20;;
57295;SDS011;43146;50.976;18.216;2024-03-06T13:38:24;66.20;;;31.20;;
57295;SDS011;43146;50.976;18.216;2024-03-06T13:40:49;68.90;;;32.30;;
57295;SDS011;43146;50.976;18.216;2024-03-06T13:43:15;68.50;;;32.00;;
57295;SDS011;43146;50.976;18.216;2024-03-06T13:45:50;70.50;;;31.90;;
57295;SDS011;43146;50.976;18.216;2024-03-06T13:48:16;66.80;;;32.40;;
57295;SDS011;43146;50.976;18.216;2024-03-06T13:50:42;75.20;;;34.30;;
57295;SDS011;43146;50.976;18.216;2024-03-06T13:53:09;66.70;;;32.90;;
57295;SDS011;43146;50.976;18.216;2024-03-06T13:55:37;70.80;;;33.20;;
57295;SDS011;43146;50.976;18.216;2024-03-06T13:58:03;76.40;;;34.10;;
57295;SDS011;43146;50.976;18.216;2024-03-06T14:00:29;76.80;;;34.00;;
57295;SDS011;43146;50.976;18.216;2024-03-06T14:02:55;80.00;;;35.10;;
57295;SDS011;43146;50.976;18.216;2024-03-06T14:05:20;74.40;;;34.50;;
57295;SDS011;43146;50.976;18.216;2024-03-06T14:07:50;77.30;;;37.40;;